Time;durP1;ratioP1;P1;durP2;ratioP2;P2;SDS_P1;SDS_P2;PMS_P1;PMS_P2;Temp;Humidity;BMP_temperature;BMP_pressure;BME280_temperature;BME280_humidity;BME280_pressure;Samples;Min_cycle;Max_cycle;Signal;HPM_P1;HPM_P2
2021/12/27 00:01:41;;;;;;;8.57;6.37;;;4.20;99.90;;;;;;5013493;28;20169;-78
2021/12/27 00:04:07;;;;;;;8.03;6.23;;;4.20;99.90;;;;;;5012112;28;20188;-78
2021/12/27 00:06:33;;;;;;;8.47;6.30;;;4.20;99.90;;;;;;5013759;28;20169;-78
2021/12/27 00:08:58;;;;;;;8.10;6.13;;;4.20;99.90;;;;;;5012109;28;20303;-78
2021/12/27 00:11:24;;;;;;;8.50;6.73;;;4.20;99.90;;;;;;5013585;28;20177;-78
2021/12/27 00:13:50;;;;;;;8.27;6.23;;;4.20;99.90;;;;;;5011960;28;20185;-78
2021/12/27 00:16:16;;;;;;;8.93;6.80;;;4.20;99.90;;;;;;5013711;28;20196;-78
2021/12/27 00:18:42;;;;;;;8.80;6.60;;;4.20;99.90;;;;;;5012234;28;20339;-78
2021/12/27 00:21:07;;;;;;;10.10;7.03;;;4.20;99.90;;;;;;5011941;28;20219;-79
2021/12/27 00:23:33;;;;;;;10.40;6.97;;;4.20;99.90;;;;;;5011831;28;20187;-79
2021/12/27 00:25:59;;;;;;;10.10;7.00;;;4.20;99.90;;;;;;5013122;28;20185;-78
2021/12/27 00:28:25;;;;;;;9.10;6.97;;;4.20;99.90;;;;;;5013303;28;20220;-78
2021/12/27 00:30:50;;;;;;;9.97;6.97;;;4.20;99.90;;;;;;5013335;28;20165;-78
2021/12/27 00:33:16;;;;;;;8.37;6.63;;;4.20;99.90;;;;;;5012050;28;20177;-78
2021/12/27 00:35:41;;;;;;;9.43;7.00;;;4.20;99.90;;;;;;5012970;28;20173;-79
2021/12/27 00:38:08;;;;;;;10.97;7.27;;;4.20;99.90;;;;;;5013193;28;20177;-78
2021/12/27 00:40:34;;;;;;;10.67;7.30;;;4.20;99.90;;;;;;5013271;28;20674;-78
2021/12/27 00:43:00;;;;;;;10.60;7.07;;;4.20;99.90;;;;;;5013287;28;20588;-78
2021/12/27 00:45:25;;;;;;;10.17;6.67;;;4.20;99.90;;;;;;5013421;28;20177;-78
2021/12/27 00:47:51;;;;;;;10.80;6.60;;;4.20;99.90;;;;;;5013449;28;20177;-78
2021/12/27 00:50:17;;;;;;;9.27;7.10;;;4.20;99.90;;;;;;5013010;28;20240;-77
2021/12/27 00:52:42;;;;;;;8.73;7.20;;;4.20;99.90;;;;;;5012929;28;20180;-77
2021/12/27 00:55:11;;;;;;;11.07;7.73;;;4.30;99.90;;;;;;5012827;28;20208;-78
2021/12/27 00:57:36;;;;;;;10.77;7.30;;;4.20;99.90;;;;;;5013047;28;20180;-78
2021/12/27 01:00:06;;;;;;;8.87;6.90;;;4.20;99.90;;;;;;5012895;28;20184;-77
2021/12/27 01:02:31;;;;;;;11.47;8.13;;;4.30;99.90;;;;;;5011559;28;20185;-78
2021/12/27 01:04:57;;;;;;;11.30;7.23;;;4.30;99.90;;;;;;5013047;28;20181;-78
2021/12/27 01:07:22;;;;;;;9.73;7.03;;;4.30;99.90;;;;;;5013244;28;20256;-78
2021/12/27 01:10:04;;;;;;;8.60;6.67;;;4.30;99.90;;;;;;5011560;28;20274;-78
2021/12/27 01:12:46;;;;;;;10.13;6.90;;;4.30;99.90;;;;;;5011759;28;20192;-78
2021/12/27 01:17:43;;;;;;;10.37;7.37;;;4.30;99.90;;;;;;5017105;28;20173;-78
2021/12/27 01:20:11;;;;;;;9.27;7.13;;;4.30;99.90;;;;;;5016915;28;20710;-78
2021/12/27 01:22:37;;;;;;;7.97;6.40;;;4.30;99.90;;;;;;5016721;28;20223;-77
2021/12/27 01:25:06;;;;;;;9.63;6.67;;;4.30;99.90;;;;;;5015408;28;20655;-78
2021/12/27 01:27:32;;;;;;;9.93;6.83;;;4.30;99.90;;;;;;5016632;28;20169;-78
2021/12/27 01:29:58;;;;;;;8.40;6.57;;;4.30;99.90;;;;;;5016423;28;20204;-78
2021/12/27 01:32:26;;;;;;;9.63;7.00;;;4.30;99.90;;;;;;5016485;28;20187;-78
2021/12/27 01:34:52;;;;;;;9.50;7.00;;;4.30;99.90;;;;;;5016437;28;20165;-78
2021/12/27 01:37:18;;;;;;;8.73;7.10;;;4.30;99.90;;;;;;5015236;28;20184;-78
2021/12/27 01:39:45;;;;;;;9.13;6.83;;;4.40;99.90;;;;;;5016319;28;20193;-78
2021/12/27 01:42:11;;;;;;;9.93;7.13;;;4.40;99.90;;;;;;5016881;28;20169;-78
2021/12/27 01:44:36;;;;;;;10.50;6.93;;;4.40;99.90;;;;;;5016334;28;20549;-78
2021/12/27 01:47:03;;;;;;;8.33;6.80;;;4.30;99.90;;;;;;5016272;28;20609;-78
2021/12/27 01:49:28;;;;;;;8.60;6.63;;;4.30;99.90;;;;;;5016088;28;20232;-78
2021/12/27 01:51:54;;;;;;;10.40;7.63;;;4.30;99.90;;;;;;5014919;28;20223;-78
2021/12/27 01:54:19;;;;;;;10.17;6.57;;;4.30;99.90;;;;;;5014804;28;20177;-78
2021/12/27 01:56:45;;;;;;;8.43;6.73;;;4.40;99.90;;;;;;5014861;28;20173;-78
2021/12/27 01:59:11;;;;;;;9.93;7.23;;;4.30;99.90;;;;;;5014600;28;20203;-77
2021/12/27 02:01:36;;;;;;;9.70;7.10;;;4.30;99.90;;;;;;5014709;28;20209;-78
2021/12/27 02:04:02;;;;;;;9.63;7.07;;;4.40;99.90;;;;;;5016411;28;20570;-78
2021/12/27 02:06:28;;;;;;;7.97;6.70;;;4.40;99.90;;;;;;5014787;28;20188;-78
2021/12/27 02:08:54;;;;;;;9.20;7.40;;;4.40;99.90;;;;;;5015597;28;20270;-78
2021/12/27 02:11:20;;;;;;;10.70;8.10;;;4.40;99.90;;;;;;5015841;28;20165;-78
2021/12/27 02:13:47;;;;;;;8.63;7.00;;;4.40;99.90;;;;;;5016075;28;20169;-77
2021/12/27 02:16:18;;;;;;;9.90;7.70;;;4.40;99.90;;;;;;5015700;28;20685;-78
2021/12/27 02:18:45;;;;;;;10.60;7.87;;;4.40;99.90;;;;;;5013379;28;20586;-78
2021/12/27 02:21:11;;;;;;;9.03;7.07;;;4.40;99.90;;;;;;5015758;28;20180;-78
2021/12/27 02:23:40;;;;;;;8.80;6.97;;;4.40;99.90;;;;;;5015534;28;20564;-78
2021/12/27 02:26:06;;;;;;;9.60;7.17;;;4.40;99.90;;;;;;5014489;28;20169;-78
2021/12/27 02:28:31;;;;;;;10.30;7.30;;;4.40;99.90;;;;;;5015292;28;20276;-78
2021/12/27 02:30:57;;;;;;;9.90;7.50;;;4.40;99.90;;;;;;5015407;28;20178;-78
2021/12/27 02:33:22;;;;;;;8.80;7.07;;;4.40;99.90;;;;;;5015914;28;20177;-78
2021/12/27 02:35:52;;;;;;;9.67;7.63;;;4.40;99.90;;;;;;5014086;28;20169;-77
2021/12/27 02:38:25;;;;;;;10.37;6.30;;;4.40;99.90;;;;;;5015483;28;20200;-78
2021/12/27 02:40:51;;;;;;;9.97;7.20;;;4.40;99.90;;;;;;5015562;28;20157;-78
2021/12/27 02:43:19;;;;;;;9.90;7.80;;;4.40;99.90;;;;;;5015398;28;20376;-79
2021/12/27 02:45:49;;;;;;;9.87;7.67;;;4.40;99.90;;;;;;5015135;28;20173;-77
2021/12/27 02:48:16;;;;;;;10.23;7.67;;;4.40;99.90;;;;;;5015063;28;20252;-78
2021/12/27 02:50:44;;;;;;;9.37;7.47;;;4.50;99.90;;;;;;5013660;28;20188;-77
2021/12/27 02:53:10;;;;;;;9.77;7.60;;;4.50;99.90;;;;;;5015540;28;20166;-78
2021/12/27 02:55:37;;;;;;;11.00;7.50;;;4.50;99.90;;;;;;5014931;28;20176;-78
2021/12/27 02:58:03;;;;;;;10.13;8.03;;;4.40;99.90;;;;;;5013568;28;20662;-77
2021/12/27 03:00:34;;;;;;;9.60;7.30;;;4.50;99.90;;;;;;5013579;28;20179;-78
2021/12/27 03:02:59;;;;;;;10.27;7.50;;;4.50;99.90;;;;;;5013524;28;20643;-78
2021/12/27 03:05:27;;;;;;;9.67;7.43;;;4.50;99.90;;;;;;5014839;28;20254;-77
2021/12/27 03:07:55;;;;;;;9.40;7.70;;;4.50;99.90;;;;;;5014769;28;20204;-77
2021/12/27 03:10:33;;;;;;;10.23;7.70;;;4.50;99.90;;;;;;5014509;28;20205;-78
2021/12/27 03:13:01;;;;;;;10.80;7.40;;;4.50;99.90;;;;;;5014925;28;20303;-77
2021/12/27 03:15:27;;;;;;;10.23;7.93;;;4.50;99.90;;;;;;5014763;28;20216;-77
2021/12/27 03:17:54;;;;;;;10.77;7.23;;;4.50;99.90;;;;;;5014535;28;20195;-78
2021/12/27 03:20:24;;;;;;;9.87;7.53;;;4.50;99.90;;;;;;5014355;28;20200;-79
2021/12/27 03:22:50;;;;;;;11.97;7.90;;;4.50;99.90;;;;;;5014707;28;20657;-77
2021/12/27 03:25:20;;;;;;;10.57;7.93;;;4.50;99.90;;;;;;5014425;28;20173;-78
2021/12/27 03:27:46;;;;;;;9.40;7.67;;;4.50;99.90;;;;;;5014861;28;20212;-79
2021/12/27 03:30:18;;;;;;;11.20;8.17;;;4.50;99.90;;;;;;5012888;28;20263;-78
2021/12/27 03:32:43;;;;;;;12.50;8.10;;;4.50;99.90;;;;;;5014267;28;20212;-78
2021/12/27 03:35:14;;;;;;;12.50;7.97;;;4.50;99.90;;;;;;5014717;28;20184;-79
2021/12/27 03:37:46;;;;;;;10.57;7.53;;;4.50;99.90;;;;;;5012732;28;20694;-78
2021/12/27 03:40:15;;;;;;;10.93;8.20;;;4.50;99.90;;;;;;5014376;28;20199;-78
2021/12/27 03:42:41;;;;;;;12.37;8.00;;;4.60;99.90;;;;;;5014091;28;20260;-79
2021/12/27 03:45:08;;;;;;;11.33;8.60;;;4.60;99.90;;;;;;5012823;28;20177;-78
2021/12/27 03:47:34;;;;;;;10.17;8.23;;;4.60;99.90;;;;;;5014039;28;20176;-78
2021/12/27 03:49:59;;;;;;;9.53;7.90;;;4.60;99.90;;;;;;5012599;28;20204;-78
2021/12/27 03:52:25;;;;;;;11.37;7.83;;;4.60;99.90;;;;;;5013896;28;20165;-78
2021/12/27 03:54:51;;;;;;;11.40;8.03;;;4.60;99.90;;;;;;5013881;28;20192;-79
2021/12/27 03:57:17;;;;;;;10.67;7.87;;;4.60;99.90;;;;;;5013812;28;20609;-79
2021/12/27 04:02:10;;;;;;;11.63;8.10;;;4.60;99.90;;;;;;5014051;28;20198;-79
2021/12/27 04:04:36;;;;;;;10.70;8.40;;;4.60;99.90;;;;;;5012565;28;20208;-79
2021/12/27 04:07:02;;;;;;;10.50;7.73;;;4.60;99.90;;;;;;5012442;28;20207;-79
2021/12/27 04:09:28;;;;;;;11.90;7.97;;;4.60;99.90;;;;;;5036050;22;20290;-90
2021/12/27 04:11:53;;;;;;;11.50;8.07;;;4.80;99.90;;;;;;4993779;28;20275;-91
2021/12/27 04:14:19;;;;;;;10.87;7.50;;;4.60;99.90;;;;;;4994812;28;20209;-90
2021/12/27 04:16:46;;;;;;;11.40;7.87;;;4.60;99.90;;;;;;4993550;28;20177;-91
2021/12/27 04:19:12;;;;;;;11.03;7.80;;;4.60;99.90;;;;;;4993431;28;20174;-91
2021/12/27 04:21:38;;;;;;;11.23;8.17;;;4.60;99.90;;;;;;4993957;28;20181;-91
2021/12/27 04:24:04;;;;;;;10.03;7.87;;;4.70;99.90;;;;;;4995138;28;20181;-90
2021/12/27 04:26:29;;;;;;;10.37;8.20;;;4.70;99.90;;;;;;5013814;28;20182;-90
2021/12/27 04:28:55;;;;;;;11.13;7.33;;;4.70;99.90;;;;;;5012914;28;20220;-91
2021/12/27 04:31:20;;;;;;;10.57;7.50;;;4.70;99.90;;;;;;4995135;28;20200;-91
2021/12/27 04:33:46;;;;;;;9.80;7.30;;;4.70;99.90;;;;;;4993905;28;20181;-91
2021/12/27 04:36:12;;;;;;;10.67;7.47;;;4.70;99.90;;;;;;4993728;28;20224;-91
2021/12/27 04:38:38;;;;;;;9.80;7.50;;;4.70;99.90;;;;;;4994696;28;20182;-91
2021/12/27 04:41:06;;;;;;;11.87;8.03;;;4.70;99.90;;;;;;4993175;28;20670;-91
2021/12/27 04:43:32;;;;;;;9.67;7.20;;;4.70;99.90;;;;;;4993264;28;20174;-91
2021/12/27 04:45:58;;;;;;;11.17;7.80;;;4.80;99.90;;;;;;4994393;28;20204;-91
2021/12/27 04:48:25;;;;;;;12.37;8.73;;;4.80;99.90;;;;;;4995294;28;20269;-91
2021/12/27 04:50:51;;;;;;;11.60;7.93;;;4.80;99.90;;;;;;4997082;28;20174;-91
2021/12/27 04:53:17;;;;;;;10.23;7.60;;;4.80;99.90;;;;;;4998730;28;20268;-91
2021/12/27 04:55:44;;;;;;;11.07;7.47;;;4.80;99.90;;;;;;4997377;28;20300;-91
2021/12/27 04:58:10;;;;;;;9.83;7.80;;;4.80;99.90;;;;;;4996876;28;20174;-91
2021/12/27 05:00:37;;;;;;;10.87;7.63;;;4.80;99.90;;;;;;4997804;28;20182;-92
2021/12/27 05:03:03;;;;;;;10.67;7.53;;;4.80;99.90;;;;;;4997077;28;20177;-91
2021/12/27 05:05:31;;;;;;;11.00;8.40;;;4.80;99.90;;;;;;4997148;28;20573;-91
2021/12/27 05:07:57;;;;;;;10.17;7.60;;;4.90;99.90;;;;;;4996905;28;20181;-91
2021/12/27 05:10:25;;;;;;;10.30;8.07;;;4.90;99.90;;;;;;4996554;28;20205;-90
2021/12/27 05:12:50;;;;;;;9.80;7.70;;;4.80;99.90;;;;;;4997499;28;20185;-91
2021/12/27 05:15:16;;;;;;;9.83;7.20;;;4.90;99.90;;;;;;4996938;28;20190;-91
2021/12/27 05:17:42;;;;;;;9.37;7.37;;;4.90;99.90;;;;;;4996954;28;20233;-92
2021/12/27 05:20:09;;;;;;;10.07;7.63;;;4.90;99.90;;;;;;4998286;28;20201;-91
2021/12/27 05:22:35;;;;;;;10.13;7.30;;;4.90;99.90;;;;;;4997035;28;20177;-91
2021/12/27 05:25:01;;;;;;;10.17;7.17;;;4.90;99.90;;;;;;4996184;28;20256;-92
2021/12/27 05:27:26;;;;;;;10.90;7.70;;;5.00;99.90;;;;;;4996628;28;20181;-91
2021/12/27 05:29:52;;;;;;;10.17;7.53;;;4.90;99.90;;;;;;4996454;28;20288;-91
2021/12/27 05:32:17;;;;;;;10.07;7.77;;;4.90;99.90;;;;;;4996502;28;20610;-91
2021/12/27 05:34:43;;;;;;;10.03;6.67;;;4.90;99.90;;;;;;4997877;28;20218;-92
2021/12/27 05:37:09;;;;;;;11.20;7.80;;;4.90;99.90;;;;;;4996403;28;20232;-91
2021/12/27 05:39:35;;;;;;;8.87;7.13;;;5.00;99.90;;;;;;4996172;28;20548;-91
2021/12/27 05:42:02;;;;;;;8.97;6.33;;;5.00;99.90;;;;;;4997294;28;20228;-91
2021/12/27 05:44:28;;;;;;;9.10;7.20;;;5.00;99.90;;;;;;4996220;28;20192;-91
2021/12/27 05:46:54;;;;;;;10.27;7.43;;;5.00;99.90;;;;;;4996579;28;20618;-91
2021/12/27 05:49:21;;;;;;;8.83;6.27;;;5.00;99.90;;;;;;4996088;28;20197;-91
2021/12/27 05:51:46;;;;;;;11.23;7.20;;;5.00;99.90;;;;;;4996247;28;20549;-91
2021/12/27 05:54:13;;;;;;;9.53;7.20;;;5.00;99.90;;;;;;4996269;28;20284;-91
2021/12/27 05:56:39;;;;;;;13.63;7.50;;;5.00;99.90;;;;;;4996250;28;20204;-91
2021/12/27 05:59:05;;;;;;;11.13;7.07;;;5.00;99.90;;;;;;4996401;28;20248;-91
2021/12/27 06:01:31;;;;;;;8.37;6.80;;;5.00;99.90;;;;;;4996011;28;20173;-91
2021/12/27 06:03:58;;;;;;;10.07;6.97;;;5.00;99.90;;;;;;4998157;28;20178;-91
2021/12/27 06:06:25;;;;;;;10.37;7.57;;;5.00;99.90;;;;;;5018921;28;20216;-91
2021/12/27 06:08:50;;;;;;;8.40;6.97;;;5.00;99.90;;;;;;5012285;28;20256;-91
2021/12/27 06:11:16;;;;;;;9.87;7.03;;;5.00;99.90;;;;;;4996620;28;20671;-91
2021/12/27 06:13:43;;;;;;;10.13;6.50;;;5.00;99.90;;;;;;4995861;28;20224;-91
2021/12/27 06:16:10;;;;;;;8.70;6.80;;;5.00;99.90;;;;;;4996237;28;20672;-91
2021/12/27 06:18:35;;;;;;;8.57;6.90;;;5.00;99.90;;;;;;4996221;28;20174;-91
2021/12/27 06:21:01;;;;;;;8.77;6.80;;;5.00;99.90;;;;;;4995659;28;20182;-91
2021/12/27 06:23:27;;;;;;;9.63;6.60;;;5.00;99.90;;;;;;4996112;28;20192;-91
2021/12/27 06:25:52;;;;;;;9.20;7.00;;;5.00;99.90;;;;;;4996744;28;20200;-91
2021/12/27 06:28:18;;;;;;;9.00;6.83;;;5.10;99.90;;;;;;4995620;28;20178;-91
2021/12/27 06:30:44;;;;;;;9.43;6.53;;;5.10;99.90;;;;;;4995735;28;20214;-91
2021/12/27 06:33:10;;;;;;;8.60;7.00;;;5.00;99.90;;;;;;4996019;28;20177;-92
2021/12/27 06:35:37;;;;;;;9.27;6.77;;;5.00;99.90;;;;;;4995475;28;20205;-92
2021/12/27 06:38:03;;;;;;;11.23;7.20;;;5.10;99.90;;;;;;4995337;28;20180;-91
2021/12/27 06:40:30;;;;;;;9.67;7.00;;;5.10;99.90;;;;;;4995640;28;20212;-91
2021/12/27 06:42:57;;;;;;;9.30;7.43;;;5.10;99.90;;;;;;4995317;28;20184;-90
2021/12/27 06:45:23;;;;;;;9.27;7.30;;;5.10;99.90;;;;;;4995264;28;20228;-90
2021/12/27 06:47:49;;;;;;;10.30;7.10;;;5.10;99.90;;;;;;4995672;28;20182;-90
2021/12/27 06:50:15;;;;;;;9.83;7.23;;;5.20;99.90;;;;;;4995162;28;20209;-90
2021/12/27 06:52:41;;;;;;;8.97;7.00;;;5.20;99.90;;;;;;4995357;28;20213;-90
2021/12/27 06:55:07;;;;;;;10.17;7.07;;;5.20;99.90;;;;;;4996662;28;20197;-90
2021/12/27 06:57:33;;;;;;;8.57;6.40;;;5.20;99.90;;;;;;4995073;28;20540;-90
2021/12/27 07:00:01;;;;;;;10.73;6.73;;;5.20;99.90;;;;;;4995795;28;20188;-90
2021/12/27 07:02:27;;;;;;;10.23;7.47;;;5.20;99.90;;;;;;4995256;28;20211;-90
2021/12/27 07:04:52;;;;;;;9.43;6.97;;;5.30;99.90;;;;;;4996522;28;20263;-90
2021/12/27 07:07:18;;;;;;;9.83;6.50;;;5.30;99.90;;;;;;4995022;28;20666;-90
2021/12/27 07:09:43;;;;;;;8.53;6.40;;;5.30;99.90;;;;;;4993331;28;20237;-90
2021/12/27 07:12:09;;;;;;;9.20;7.10;;;5.30;99.90;;;;;;4994072;28;20602;-90
2021/12/27 07:14:35;;;;;;;11.23;7.37;;;5.30;99.90;;;;;;4994617;28;20264;-90
2021/12/27 07:17:00;;;;;;;8.07;6.43;;;5.30;99.90;;;;;;4995812;28;20173;-90
2021/12/27 07:19:27;;;;;;;8.90;6.40;;;5.30;99.90;;;;;;4994441;28;20182;-90
2021/12/27 07:21:53;;;;;;;9.13;6.77;;;5.30;99.90;;;;;;4994446;28;20182;-90
2021/12/27 07:24:18;;;;;;;8.90;6.50;;;5.30;99.90;;;;;;4994309;28;20186;-90
2021/12/27 07:26:44;;;;;;;8.97;6.57;;;5.30;99.90;;;;;;4995697;28;20559;-90
2021/12/27 07:29:10;;;;;;;11.53;7.33;;;5.30;99.90;;;;;;4994580;28;20686;-90
2021/12/27 07:31:35;;;;;;;10.20;6.63;;;5.30;99.90;;;;;;4995923;28;20181;-90
2021/12/27 07:34:01;;;;;;;7.90;6.37;;;5.30;99.90;;;;;;4994501;28;20190;-90
2021/12/27 07:36:30;;;;;;;10.73;6.73;;;5.40;99.90;;;;;;4994754;28;20205;-90
2021/12/27 07:38:57;;;;;;;9.37;6.77;;;5.40;99.90;;;;;;4995106;28;20181;-90
2021/12/27 07:41:22;;;;;;;9.80;6.90;;;5.40;99.90;;;;;;4993450;28;20240;-90
2021/12/27 07:43:48;;;;;;;8.87;7.10;;;5.40;99.90;;;;;;4994392;28;20185;-90
2021/12/27 07:46:14;;;;;;;8.87;6.67;;;5.40;99.90;;;;;;4995124;28;20202;-91
2021/12/27 07:48:39;;;;;;;9.10;6.73;;;5.40;99.90;;;;;;4994660;28;20556;-90
2021/12/27 07:51:05;;;;;;;9.93;6.23;;;5.40;99.90;;;;;;4994655;28;20683;-90
2021/12/27 07:53:31;;;;;;;9.40;6.60;;;5.40;99.90;;;;;;4993848;28;20576;-90
2021/12/27 07:55:56;;;;;;;8.73;6.53;;;5.40;99.90;;;;;;4994390;28;20197;-91
2021/12/27 07:58:22;;;;;;;9.63;6.50;;;5.50;99.90;;;;;;4994680;28;20177;-90
2021/12/27 08:00:50;;;;;;;8.30;6.43;;;5.50;99.90;;;;;;4994472;28;20208;-90
2021/12/27 08:03:17;;;;;;;11.43;6.57;;;5.50;99.90;;;;;;5004867;28;20170;-90
2021/12/27 08:05:43;;;;;;;9.93;6.97;;;5.50;99.90;;;;;;5010541;28;20197;-90
2021/12/27 08:08:08;;;;;;;9.03;6.70;;;5.40;99.90;;;;;;4994767;28;20196;-90
2021/12/27 08:10:34;;;;;;;9.10;6.90;;;5.60;99.90;;;;;;4995943;28;20310;-90
2021/12/27 08:13:01;;;;;;;8.97;6.60;;;6.10;99.90;;;;;;4994478;28;20213;-90
2021/12/27 08:15:27;;;;;;;10.13;7.00;;;5.60;99.90;;;;;;4996034;28;20204;-90
2021/12/27 08:17:52;;;;;;;11.80;6.97;;;5.60;99.90;;;;;;4994262;28;20177;-90
2021/12/27 08:20:18;;;;;;;11.40;6.40;;;5.60;99.90;;;;;;4995279;28;20551;-90
2021/12/27 08:22:43;;;;;;;9.33;6.70;;;5.70;99.90;;;;;;4993505;28;20670;-90
2021/12/27 08:25:09;;;;;;;9.50;7.33;;;5.70;99.90;;;;;;4994095;28;20240;-90
2021/12/27 08:27:40;;;;;;;10.07;6.80;;;5.60;99.90;;;;;;4995694;28;20178;-90
2021/12/27 08:30:08;;;;;;;9.83;6.63;;;5.70;99.90;;;;;;4993603;28;20316;-90
2021/12/27 08:32:36;;;;;;;8.30;5.90;;;5.70;99.90;;;;;;4995977;28;20165;-90
2021/12/27 08:35:02;;;;;;;8.00;6.13;;;5.70;99.90;;;;;;4995733;28;20194;-90
2021/12/27 08:37:32;;;;;;;9.47;7.10;;;5.70;99.90;;;;;;4995660;28;20177;-90
2021/12/27 08:39:58;;;;;;;8.83;6.13;;;5.80;99.90;;;;;;4996550;28;20178;-90
2021/12/27 08:42:25;;;;;;;10.37;6.17;;;5.70;99.90;;;;;;4997461;28;20261;-91
2021/12/27 08:44:52;;;;;;;7.87;6.03;;;5.70;99.90;;;;;;4994981;28;20300;-91
2021/12/27 08:47:18;;;;;;;7.73;5.90;;;5.80;99.90;;;;;;4994954;28;20276;-90
2021/12/27 08:49:45;;;;;;;6.40;5.70;;;5.80;99.90;;;;;;4995316;28;20229;-90
2021/12/27 08:52:11;;;;;;;9.70;5.80;;;5.70;99.90;;;;;;4997062;28;20174;-90
2021/12/27 08:54:37;;;;;;;7.10;5.47;;;5.70;99.90;;;;;;5006469;28;20181;-90
2021/12/27 08:57:04;;;;;;;8.23;5.37;;;5.70;99.90;;;;;;5016502;28;20192;-90
2021/12/27 08:59:30;;;;;;;7.03;4.97;;;5.70;99.90;;;;;;5015700;28;20197;-90
2021/12/27 09:01:56;;;;;;;7.87;5.80;;;5.70;99.90;;;;;;5001423;28;20277;-90
2021/12/27 09:04:23;;;;;;;9.30;5.90;;;5.70;99.90;;;;;;4994840;28;20213;-90
2021/12/27 09:06:49;;;;;;;6.70;5.53;;;5.70;99.90;;;;;;4995758;28;20563;-91
2021/12/27 09:09:15;;;;;;;7.00;5.73;;;5.70;99.90;;;;;;5000409;28;20220;-90
2021/12/27 09:11:43;;;;;;;7.07;5.40;;;5.70;99.90;;;;;;4983170;28;20165;-91
2021/12/27 09:14:09;;;;;;;7.90;5.63;;;5.70;99.90;;;;;;4992722;28;20289;-90
2021/12/27 09:16:35;;;;;;;7.10;6.07;;;5.80;99.90;;;;;;4975779;28;20193;-90
2021/12/27 09:19:01;;;;;;;7.40;5.93;;;5.80;99.90;;;;;;4991592;28;20225;-90
2021/12/27 09:21:26;;;;;;;7.07;5.50;;;5.80;99.90;;;;;;4990550;28;20187;-91
2021/12/27 09:23:52;;;;;;;6.60;5.33;;;5.90;99.90;;;;;;4995012;28;20244;-91
2021/12/27 09:26:18;;;;;;;7.27;5.70;;;5.90;99.90;;;;;;4993615;28;20194;-90
2021/12/27 09:28:44;;;;;;;6.73;5.70;;;5.90;99.90;;;;;;4993552;28;20184;-90
2021/12/27 09:31:09;;;;;;;8.60;6.20;;;5.90;99.90;;;;;;4993296;28;20236;-90
2021/12/27 09:33:35;;;;;;;7.83;5.57;;;6.00;99.90;;;;;;4993050;28;20265;-90
2021/12/27 09:36:00;;;;;;;8.53;5.40;;;6.00;99.90;;;;;;4997019;28;20655;-91
2021/12/27 09:38:26;;;;;;;8.63;5.53;;;6.00;99.90;;;;;;4997899;28;20518;-90
2021/12/27 09:40:51;;;;;;;8.00;6.13;;;6.00;99.90;;;;;;4997070;28;20181;-90
2021/12/27 09:43:17;;;;;;;6.83;5.20;;;6.10;99.90;;;;;;4997589;28;20734;-90
2021/12/27 09:45:43;;;;;;;7.03;6.07;;;6.10;99.90;;;;;;4996079;28;20548;-90
2021/12/27 09:48:09;;;;;;;7.63;5.43;;;6.20;99.90;;;;;;4998756;28;20180;-90
2021/12/27 09:50:41;;;;;;;6.13;5.20;;;6.20;99.90;;;;;;4997316;28;20197;-90
2021/12/27 09:53:07;;;;;;;7.43;5.60;;;6.30;99.90;;;;;;4999548;28;20162;-90
2021/12/27 09:55:34;;;;;;;7.67;5.47;;;6.30;99.90;;;;;;4996859;28;20203;-90
2021/12/27 09:58:00;;;;;;;7.00;5.70;;;6.30;99.90;;;;;;4997745;28;20179;-91
2021/12/27 10:00:27;;;;;;;8.93;5.07;;;6.40;99.90;;;;;;5010874;28;20241;-90
2021/12/27 10:02:55;;;;;;;6.53;4.87;;;6.40;99.90;;;;;;5008374;28;20169;-90
2021/12/27 10:05:23;;;;;;;6.90;4.70;;;6.40;99.90;;;;;;4996357;28;20197;-91
2021/12/27 10:07:49;;;;;;;6.73;3.77;;;6.40;99.90;;;;;;4996114;28;20186;-91
2021/12/27 10:10:15;;;;;;;5.20;4.13;;;6.50;99.90;;;;;;4995988;28;20209;-91
2021/12/27 10:12:41;;;;;;;5.03;3.83;;;6.50;99.90;;;;;;4996139;28;20177;-91
2021/12/27 10:15:09;;;;;;;6.13;4.40;;;6.60;99.90;;;;;;4997576;28;20263;-91
2021/12/27 10:17:37;;;;;;;6.87;3.97;;;6.60;99.90;;;;;;4996639;28;20545;-91
2021/12/27 10:20:21;;;;;;;6.87;4.13;;;6.60;99.90;;;;;;4997248;28;20559;-91
2021/12/27 10:22:52;;;;;;;6.53;4.07;;;6.70;99.90;;;;;;4998939;28;20197;-91
2021/12/27 10:25:23;;;;;;;6.23;4.23;;;6.80;99.90;;;;;;5005832;28;20201;-91
2021/12/27 10:27:53;;;;;;;5.47;3.57;;;6.80;99.90;;;;;;5019305;28;20162;-91
2021/12/27 10:30:21;;;;;;;4.47;3.97;;;6.90;99.90;;;;;;5000075;28;20254;-91
2021/12/27 10:33:07;;;;;;;4.47;3.57;;;6.90;99.90;;;;;;4997139;28;20181;-91
2021/12/27 10:35:43;;;;;;;6.03;3.83;;;6.90;99.90;;;;;;4995588;28;20198;-91
2021/12/27 10:38:18;;;;;;;5.57;4.20;;;7.00;99.90;;;;;;4997458;28;20655;-91
2021/12/27 10:40:49;;;;;;;5.73;3.83;;;7.00;99.90;;;;;;4995637;28;20170;-91
2021/12/27 10:43:17;;;;;;;5.03;3.60;;;7.10;99.90;;;;;;4995523;28;20186;-91
2021/12/27 10:45:45;;;;;;;11.07;4.80;;;7.20;99.90;;;;;;4994943;28;20241;-91
2021/12/27 10:48:20;;;;;;;4.93;3.63;;;7.10;99.90;;;;;;4994959;28;20209;-91
2021/12/27 10:50:46;;;;;;;4.23;3.43;;;7.20;99.90;;;;;;4996202;28;20243;-91
2021/12/27 10:53:14;;;;;;;4.77;3.57;;;7.20;99.90;;;;;;4995810;28;20177;-91
2021/12/27 10:55:48;;;;;;;4.47;3.60;;;7.20;99.90;;;;;;4995029;28;20571;-91
2021/12/27 10:58:29;;;;;;;4.63;3.63;;;7.30;99.90;;;;;;4995124;28;20197;-91
2021/12/27 11:01:00;;;;;;;4.50;3.27;;;7.40;99.90;;;;;;4975784;28;20178;-91
2021/12/27 11:03:28;;;;;;;5.27;3.63;;;7.50;99.90;;;;;;4975455;28;20210;-91
2021/12/27 11:05:54;;;;;;;4.50;3.50;;;7.50;99.90;;;;;;4976768;28;20304;-91
2021/12/27 11:08:20;;;;;;;4.90;3.60;;;7.60;99.90;;;;;;4977143;28;20212;-91
2021/12/27 11:10:46;;;;;;;4.63;2.97;;;7.70;99.90;;;;;;4976224;28;20218;-92
2021/12/27 11:13:12;;;;;;;4.60;3.70;;;7.70;99.90;;;;;;4975921;28;20219;-91
2021/12/27 11:15:40;;;;;;;3.63;3.13;;;7.70;99.90;;;;;;4975331;28;20221;-91
2021/12/27 11:18:06;;;;;;;3.67;2.57;;;7.80;99.90;;;;;;4975763;28;20204;-90
2021/12/27 11:20:33;;;;;;;4.97;3.20;;;7.90;99.90;;;;;;4977827;28;20178;-90
2021/12/27 11:23:00;;;;;;;3.73;3.10;;;7.90;99.90;;;;;;4975867;28;20197;-91
2021/12/27 11:25:30;;;;;;;4.17;3.00;;;8.00;99.90;;;;;;4997255;28;20235;-90
2021/12/27 11:27:56;;;;;;;4.03;2.80;;;8.00;99.90;;;;;;4994519;28;20501;-91
2021/12/27 11:30:28;;;;;;;4.03;2.80;;;8.00;99.90;;;;;;4994582;28;20578;-90
2021/12/27 11:33:01;;;;;;;3.00;2.70;;;8.00;99.90;;;;;;4994625;28;20173;-91
2021/12/27 11:35:38;;;;;;;3.07;2.60;;;8.00;99.90;;;;;;4994266;28;20193;-91
2021/12/27 11:38:05;;;;;;;3.03;2.73;;;7.90;99.90;;;;;;4996378;28;20165;-91
2021/12/27 11:40:43;;;;;;;3.57;3.03;;;7.90;99.90;;;;;;4995722;28;20608;-90
2021/12/27 11:43:09;;;;;;;3.50;2.73;;;7.90;99.90;;;;;;4997676;28;20180;-91
2021/12/27 11:45:47;;;;;;;3.97;2.73;;;7.80;99.90;;;;;;4998872;28;20197;-91
2021/12/27 11:48:15;;;;;;;3.03;2.73;;;7.90;99.90;;;;;;4996048;28;20238;-91
2021/12/27 11:50:56;;;;;;;4.33;2.97;;;7.90;99.90;;;;;;4995240;28;20209;-91
2021/12/27 11:53:54;;;;;;;4.33;3.00;;;7.90;99.90;;;;;;4995113;28;20189;-91
2021/12/27 11:56:38;;;;;;;3.73;2.90;;;7.90;99.90;;;;;;4997550;28;20271;-91
2021/12/27 11:59:22;;;;;;;4.30;2.80;;;7.90;99.90;;;;;;5007474;28;20217;-91
2021/12/27 12:01:54;;;;;;;3.60;2.77;;;8.00;99.90;;;;;;4995161;28;20232;-91
2021/12/27 12:04:46;;;;;;;3.70;2.83;;;7.90;99.90;;;;;;4995791;28;20180;-91
2021/12/27 12:07:34;;;;;;;3.20;2.73;;;8.00;99.90;;;;;;4994690;28;20178;-91
2021/12/27 12:10:11;;;;;;;3.50;2.90;;;8.00;99.90;;;;;;4994785;28;20214;-91
2021/12/27 12:12:38;;;;;;;2.70;2.47;;;8.00;99.90;;;;;;4993862;28;20158;-91
2021/12/27 12:15:05;;;;;;;4.57;2.90;;;8.00;99.90;;;;;;4993617;28;20199;-91
2021/12/27 12:17:40;;;;;;;3.23;2.60;;;8.10;99.90;;;;;;4993629;28;20269;-91
2021/12/27 12:20:23;;;;;;;3.37;2.70;;;8.10;99.90;;;;;;4994100;28;20184;-91
2021/12/27 12:23:07;;;;;;;3.10;2.63;;;8.10;99.90;;;;;;4994254;28;20177;-91
2021/12/27 12:25:35;;;;;;;3.63;2.60;;;8.10;99.90;;;;;;4996278;28;20335;-91
2021/12/27 12:28:03;;;;;;;3.53;2.50;;;8.20;99.90;;;;;;4993576;28;20655;-91
2021/12/27 12:30:34;;;;;;;2.93;2.40;;;8.20;99.90;;;;;;4996385;28;20200;-91
2021/12/27 12:33:16;;;;;;;3.63;2.90;;;8.20;99.90;;;;;;4996420;28;20169;-91
2021/12/27 12:35:49;;;;;;;3.93;2.47;;;8.30;99.90;;;;;;4993816;28;20194;-91
2021/12/27 12:38:35;;;;;;;2.57;2.17;;;8.30;99.90;;;;;;4993612;28;20181;-91
2021/12/27 12:41:08;;;;;;;3.00;2.70;;;8.20;99.90;;;;;;4994969;28;20279;-91
2021/12/27 12:43:46;;;;;;;3.07;2.60;;;8.20;99.90;;;;;;4993409;28;20558;-91
2021/12/27 12:46:13;;;;;;;4.33;2.97;;;8.20;99.90;;;;;;4995140;28;20357;-91
2021/12/27 12:48:39;;;;;;;2.60;2.40;;;8.20;99.90;;;;;;4993403;28;20620;-91
2021/12/27 12:51:04;;;;;;;3.30;2.60;;;8.20;99.90;;;;;;4993222;28;20304;-91
2021/12/27 12:53:31;;;;;;;3.97;2.83;;;8.30;99.90;;;;;;4993346;28;20173;-91
2021/12/27 12:56:05;;;;;;;3.47;2.80;;;8.30;99.90;;;;;;4993764;28;20288;-92
2021/12/27 12:58:37;;;;;;;2.77;2.40;;;8.20;99.90;;;;;;4993406;28;20208;-92
2021/12/27 13:01:08;;;;;;;4.93;2.73;;;8.70;99.90;;;;;;4993182;28;20172;-91